sensor_id;sensor_type;location;lat;lon;timestamp;temperature;humidity
3504;DHT22;1766;53.490;10.174;2022-07-01T00:00:14;29.60;44.30
3504;DHT22;1766;53.490;10.174;2022-07-01T00:02:17;29.80;43.70
3504;DHT22;1766;53.490;10.174;2022-07-01T00:04:19;29.70;44.00
3504;DHT22;1766;53.490;10.174;2022-07-01T00:06:21;29.80;43.80
3504;DHT22;1766;53.490;10.174;2022-07-01T00:08:23;29.90;43.60
3504;DHT22;1766;53.490;10.174;2022-07-01T00:10:25;29.90;43.50
3504;DHT22;1766;53.490;10.174;2022-07-01T00:12:27;30.00;43.30
3504;DHT22;1766;53.490;10.174;2022-07-01T00:14:29;30.00;42.40
3504;DHT22;1766;53.490;10.174;2022-07-01T00:16:31;29.90;42.50
3504;DHT22;1766;53.490;10.174;2022-07-01T00:18:34;29.90;42.10
3504;DHT22;1766;53.490;10.174;2022-07-01T00:20:36;29.80;41.70
3504;DHT22;1766;53.490;10.174;2022-07-01T00:22:38;29.90;41.50
3504;DHT22;1766;53.490;10.174;2022-07-01T00:24:40;29.90;41.20
3504;DHT22;1766;53.490;10.174;2022-07-01T00:26:42;29.80;40.80
3504;DHT22;1766;53.490;10.174;2022-07-01T00:28:44;29.70;41.00
3504;DHT22;1766;53.490;10.174;2022-07-01T00:30:46;29.60;41.10
3504;DHT22;1766;53.490;10.174;2022-07-01T00:32:48;29.50;41.20
3504;DHT22;1766;53.490;10.174;2022-07-01T00:34:51;29.40;41.50
3504;DHT22;1766;53.490;10.174;2022-07-01T00:36:53;29.20;41.70
3504;DHT22;1766;53.490;10.174;2022-07-01T00:38:55;29.10;42.00
3504;DHT22;1766;53.490;10.174;2022-07-01T00:40:57;28.90;42.40
3504;DHT22;1766;53.490;10.174;2022-07-01T00:42:59;28.80;42.60
3504;DHT22;1766;53.490;10.174;2022-07-01T00:45:00;28.80;42.90
3504;DHT22;1766;53.490;10.174;2022-07-01T00:47:07;28.60;43.10
3504;DHT22;1766;53.490;10.174;2022-07-01T00:49:11;28.30;43.70
3504;DHT22;1766;53.490;10.174;2022-07-01T00:51:18;27.90;44.40
3504;DHT22;1766;53.490;10.174;2022-07-01T00:53:20;27.60;45.30
3504;DHT22;1766;53.490;10.174;2022-07-01T00:55:22;27.30;45.70
3504;DHT22;1766;53.490;10.174;2022-07-01T00:57:30;27.20;46.40
3504;DHT22;1766;53.490;10.174;2022-07-01T00:59:32;27.00;46.90
3504;DHT22;1766;53.490;10.174;2022-07-01T01:01:35;27.00;47.30
3504;DHT22;1766;53.490;10.174;2022-07-01T01:03:37;26.90;47.80
3504;DHT22;1766;53.490;10.174;2022-07-01T01:05:40;26.80;48.40
3504;DHT22;1766;53.490;10.174;2022-07-01T01:07:44;26.70;48.70
3504;DHT22;1766;53.490;10.174;2022-07-01T01:09:46;26.70;48.90
3504;DHT22;1766;53.490;10.174;2022-07-01T01:11:48;26.50;49.30
3504;DHT22;1766;53.490;10.174;2022-07-01T01:13:50;26.40;49.60
3504;DHT22;1766;53.490;10.174;2022-07-01T01:15:52;26.30;50.00
3504;DHT22;1766;53.490;10.174;2022-07-01T01:17:54;26.30;50.30
3504;DHT22;1766;53.490;10.174;2022-07-01T01:19:56;26.20;50.20
3504;DHT22;1766;53.490;10.174;2022-07-01T01:21:59;26.20;50.30
3504;DHT22;1766;53.490;10.174;2022-07-01T01:24:01;26.10;50.50
3504;DHT22;1766;53.490;10.174;2022-07-01T01:26:03;26.10;50.60
3504;DHT22;1766;53.490;10.174;2022-07-01T01:28:05;26.00;50.40
3504;DHT22;1766;53.490;10.174;2022-07-01T01:30:08;26.00;50.40
3504;DHT22;1766;53.490;10.174;2022-07-01T01:32:12;25.80;50.70
3504;DHT22;1766;53.490;10.174;2022-07-01T01:34:14;25.80;50.90
3504;DHT22;1766;53.490;10.174;2022-07-01T01:36:28;25.80;51.10
3504;DHT22;1766;53.490;10.174;2022-07-01T01:38:31;25.70;51.40
3504;DHT22;1766;53.490;10.174;2022-07-01T01:40:34;25.70;51.30
3504;DHT22;1766;53.490;10.174;2022-07-01T01:42:35;25.60;51.10
3504;DHT22;1766;53.490;10.174;2022-07-01T01:44:37;25.60;51.40
3504;DHT22;1766;53.490;10.174;2022-07-01T01:46:39;25.50;51.40
3504;DHT22;1766;53.490;10.174;2022-07-01T01:48:41;25.50;51.70
3504;DHT22;1766;53.490;10.174;2022-07-01T01:50:43;25.50;51.80
3504;DHT22;1766;53.490;10.174;2022-07-01T01:52:45;25.60;51.90
3504;DHT22;1766;53.490;10.174;2022-07-01T01:54:48;25.60;51.80
3504;DHT22;1766;53.490;10.174;2022-07-01T01:56:50;25.60;51.90
3504;DHT22;1766;53.490;10.174;2022-07-01T01:58:52;25.60;51.90
3504;DHT22;1766;53.490;10.174;2022-07-01T02:00:54;25.60;52.00
3504;DHT22;1766;53.490;10.174;2022-07-01T02:02:56;25.60;52.30
3504;DHT22;1766;53.490;10.174;2022-07-01T02:04:58;25.60;52.50
3504;DHT22;1766;53.490;10.174;2022-07-01T02:07:00;25.70;52.60
3504;DHT22;1766;53.490;10.174;2022-07-01T02:09:02;25.70;52.60
3504;DHT22;1766;53.490;10.174;2022-07-01T02:11:06;25.80;52.90
3504;DHT22;1766;53.490;10.174;2022-07-01T02:13:08;25.70;52.90
3504;DHT22;1766;53.490;10.174;2022-07-01T02:15:10;25.90;52.90
3504;DHT22;1766;53.490;10.174;2022-07-01T02:17:12;25.80;52.90
3504;DHT22;1766;53.490;10.174;2022-07-01T02:19:14;25.90;53.00
3504;DHT22;1766;53.490;10.174;2022-07-01T02:21:16;25.90;53.10
3504;DHT22;1766;53.490;10.174;2022-07-01T02:23:18;25.90;53.20
3504;DHT22;1766;53.490;10.174;2022-07-01T02:25:20;25.80;53.30
3504;DHT22;1766;53.490;10.174;2022-07-01T02:27:23;25.90;54.00
3504;DHT22;1766;53.490;10.174;2022-07-01T02:29:25;25.90;53.50
3504;DHT22;1766;53.490;10.174;2022-07-01T02:31:27;26.00;53.50
3504;DHT22;1766;53.490;10.174;2022-07-01T02:33:29;26.10;53.50
3504;DHT22;1766;53.490;10.174;2022-07-01T02:35:31;26.10;53.40
3504;DHT22;1766;53.490;10.174;2022-07-01T02:37:33;26.10;53.40
3504;DHT22;1766;53.490;10.174;2022-07-01T02:39:35;26.10;53.40
3504;DHT22;1766;53.490;10.174;2022-07-01T02:41:37;26.10;53.40
3504;DHT22;1766;53.490;10.174;2022-07-01T02:43:54;26.10;53.40
3504;DHT22;1766;53.490;10.174;2022-07-01T02:45:56;26.10;53.50
3504;DHT22;1766;53.490;10.174;2022-07-01T02:47:58;26.00;53.60
3504;DHT22;1766;53.490;10.174;2022-07-01T02:50:02;26.10;53.70
3504;DHT22;1766;53.490;10.174;2022-07-01T02:52:04;26.10;53.80
3504;DHT22;1766;53.490;10.174;2022-07-01T02:54:06;26.10;53.70
3504;DHT22;1766;53.490;10.174;2022-07-01T02:56:08;26.10;53.60
3504;DHT22;1766;53.490;10.174;2022-07-01T02:58:10;26.10;53.60
3504;DHT22;1766;53.490;10.174;2022-07-01T03:00:14;26.20;53.70
3504;DHT22;1766;53.490;10.174;2022-07-01T03:02:17;26.20;53.80
3504;DHT22;1766;53.490;10.174;2022-07-01T03:04:19;26.20;53.80
3504;DHT22;1766;53.490;10.174;2022-07-01T03:06:21;26.20;53.70
3504;DHT22;1766;53.490;10.174;2022-07-01T03:08:23;26.30;53.50
3504;DHT22;1766;53.490;10.174;2022-07-01T03:10:25;26.20;53.80
3504;DHT22;1766;53.490;10.174;2022-07-01T03:12:27;26.20;53.80
3504;DHT22;1766;53.490;10.174;2022-07-01T03:14:29;26.20;53.90
3504;DHT22;1766;53.490;10.174;2022-07-01T03:16:32;26.20;53.90
3504;DHT22;1766;53.490;10.174;2022-07-01T03:18:33;26.20;54.10
3504;DHT22;1766;53.490;10.174;2022-07-01T03:20:35;26.20;54.30
3504;DHT22;1766;53.490;10.174;2022-07-01T03:22:37;26.20;54.40
3504;DHT22;1766;53.490;10.174;2022-07-01T03:24:40;26.10;54.60
3504;DHT22;1766;53.490;10.174;2022-07-01T03:26:42;26.10;54.70
3504;DHT22;1766;53.490;10.174;2022-07-01T03:28:45;26.10;54.80
3504;DHT22;1766;53.490;10.174;2022-07-01T03:30:47;26.20;55.00
3504;DHT22;1766;53.490;10.174;2022-07-01T03:32:50;26.10;54.90
3504;DHT22;1766;53.490;10.174;2022-07-01T03:34:52;26.20;55.00
3504;DHT22;1766;53.490;10.174;2022-07-01T03:36:54;26.20;55.10
3504;DHT22;1766;53.490;10.174;2022-07-01T03:38:56;26.30;55.00
3504;DHT22;1766;53.490;10.174;2022-07-01T03:40:58;26.30;55.00
3504;DHT22;1766;53.490;10.174;2022-07-01T03:43:00;26.30;55.00
3504;DHT22;1766;53.490;10.174;2022-07-01T03:45:02;26.30;55.10
3504;DHT22;1766;53.490;10.174;2022-07-01T03:47:05;26.30;55.30
3504;DHT22;1766;53.490;10.174;2022-07-01T03:49:08;26.30;55.30
3504;DHT22;1766;53.490;10.174;2022-07-01T03:51:11;26.30;55.30
3504;DHT22;1766;53.490;10.174;2022-07-01T03:53:13;26.30;55.40
3504;DHT22;1766;53.490;10.174;2022-07-01T03:55:29;26.40;55.40
3504;DHT22;1766;53.490;10.174;2022-07-01T03:57:30;26.50;55.40
3504;DHT22;1766;53.490;10.174;2022-07-01T03:59:36;26.50;55.40
3504;DHT22;1766;53.490;10.174;2022-07-01T04:01:39;26.50;55.40
3504;DHT22;1766;53.490;10.174;2022-07-01T04:03:41;26.50;55.30
3504;DHT22;1766;53.490;10.174;2022-07-01T04:05:44;26.50;55.30
3504;DHT22;1766;53.490;10.174;2022-07-01T04:07:45;26.50;55.40
3504;DHT22;1766;53.490;10.174;2022-07-01T04:09:48;26.40;55.40
3504;DHT22;1766;53.490;10.174;2022-07-01T04:11:50;26.60;55.70
3504;DHT22;1766;53.490;10.174;2022-07-01T04:13:52;26.70;55.70
3504;DHT22;1766;53.490;10.174;2022-07-01T04:15:54;26.70;56.10
3504;DHT22;1766;53.490;10.174;2022-07-01T04:17:56;26.70;55.30
3504;DHT22;1766;53.490;10.174;2022-07-01T04:19:58;26.70;55.20
3504;DHT22;1766;53.490;10.174;2022-07-01T04:22:02;26.60;55.10
3504;DHT22;1766;53.490;10.174;2022-07-01T04:24:18;26.50;55.20
3504;DHT22;1766;53.490;10.174;2022-07-01T04:26:19;26.30;55.20
3504;DHT22;1766;53.490;10.174;2022-07-01T04:28:21;26.40;55.50
3504;DHT22;1766;53.490;10.174;2022-07-01T04:30:23;26.40;55.60
3504;DHT22;1766;53.490;10.174;2022-07-01T04:32:25;26.30;55.60
3504;DHT22;1766;53.490;10.174;2022-07-01T04:34:27;26.30;55.70
3504;DHT22;1766;53.490;10.174;2022-07-01T04:36:29;26.20;55.80
3504;DHT22;1766;53.490;10.174;2022-07-01T04:38:32;26.20;56.00
3504;DHT22;1766;53.490;10.174;2022-07-01T04:40:34;26.20;56.00
3504;DHT22;1766;53.490;10.174;2022-07-01T04:42:35;26.30;56.00
3504;DHT22;1766;53.490;10.174;2022-07-01T04:44:37;26.30;55.90
3504;DHT22;1766;53.490;10.174;2022-07-01T04:46:39;26.20;55.80
3504;DHT22;1766;53.490;10.174;2022-07-01T04:48:41;26.20;55.80
3504;DHT22;1766;53.490;10.174;2022-07-01T04:50:43;26.10;55.80
3504;DHT22;1766;53.490;10.174;2022-07-01T04:52:44;26.00;55.80
3504;DHT22;1766;53.490;10.174;2022-07-01T04:54:48;25.90;55.70
3504;DHT22;1766;53.490;10.174;2022-07-01T04:56:49;26.00;55.70
3504;DHT22;1766;53.490;10.174;2022-07-01T04:58:52;25.80;55.50
3504;DHT22;1766;53.490;10.174;2022-07-01T05:00:54;25.80;55.40
3504;DHT22;1766;53.490;10.174;2022-07-01T05:02:56;25.70;55.50
3504;DHT22;1766;53.490;10.174;2022-07-01T05:04:58;25.60;55.60
3504;DHT22;1766;53.490;10.174;2022-07-01T05:06:59;25.60;55.70
3504;DHT22;1766;53.490;10.174;2022-07-01T05:09:02;25.50;55.50
3504;DHT22;1766;53.490;10.174;2022-07-01T05:11:06;25.50;55.60
3504;DHT22;1766;53.490;10.174;2022-07-01T05:13:08;25.30;55.40
3504;DHT22;1766;53.490;10.174;2022-07-01T05:15:10;25.20;55.10
3504;DHT22;1766;53.490;10.174;2022-07-01T05:17:12;25.10;55.50
3504;DHT22;1766;53.490;10.174;2022-07-01T05:19:13;25.00;55.70
3504;DHT22;1766;53.490;10.174;2022-07-01T05:21:29;24.80;55.60
3504;DHT22;1766;53.490;10.174;2022-07-01T05:23:45;24.70;55.60
3504;DHT22;1766;53.490;10.174;2022-07-01T05:25:47;24.40;55.70
3504;DHT22;1766;53.490;10.174;2022-07-01T05:27:50;24.30;56.10
3504;DHT22;1766;53.490;10.174;2022-07-01T05:29:52;24.30;56.30
3504;DHT22;1766;53.490;10.174;2022-07-01T05:31:54;24.10;56.30
3504;DHT22;1766;53.490;10.174;2022-07-01T05:33:56;24.00;56.50
3504;DHT22;1766;53.490;10.174;2022-07-01T05:35:58;23.90;56.80
3504;DHT22;1766;53.490;10.174;2022-07-01T05:38:00;23.90;56.90
3504;DHT22;1766;53.490;10.174;2022-07-01T05:40:02;23.70;56.80
3504;DHT22;1766;53.490;10.174;2022-07-01T05:42:04;23.60;57.00
3504;DHT22;1766;53.490;10.174;2022-07-01T05:44:08;23.60;57.10
3504;DHT22;1766;53.490;10.174;2022-07-01T05:46:10;23.60;57.20
3504;DHT22;1766;53.490;10.174;2022-07-01T05:48:11;23.50;57.20
3504;DHT22;1766;53.490;10.174;2022-07-01T05:50:13;23.50;57.30
3504;DHT22;1766;53.490;10.174;2022-07-01T05:52:16;23.40;57.20
3504;DHT22;1766;53.490;10.174;2022-07-01T05:54:18;23.50;57.20
3504;DHT22;1766;53.490;10.174;2022-07-01T05:56:20;23.50;56.90
3504;DHT22;1766;53.490;10.174;2022-07-01T05:58:22;23.40;57.00
3504;DHT22;1766;53.490;10.174;2022-07-01T06:00:25;23.30;56.80
3504;DHT22;1766;53.490;10.174;2022-07-01T06:02:27;23.30;56.90
3504;DHT22;1766;53.490;10.174;2022-07-01T06:04:29;23.20;56.90
3504;DHT22;1766;53.490;10.174;2022-07-01T06:06:31;23.10;56.90
3504;DHT22;1766;53.490;10.174;2022-07-01T06:08:33;23.00;57.00
3504;DHT22;1766;53.490;10.174;2022-07-01T06:10:35;22.90;57.10
3504;DHT22;1766;53.490;10.174;2022-07-01T06:12:38;22.80;57.10
3504;DHT22;1766;53.490;10.174;2022-07-01T06:14:40;22.80;57.30
3504;DHT22;1766;53.490;10.174;2022-07-01T06:16:43;22.70;57.30
3504;DHT22;1766;53.490;10.174;2022-07-01T06:18:45;22.60;57.50
3504;DHT22;1766;53.490;10.174;2022-07-01T06:20:47;22.60;57.50
3504;DHT22;1766;53.490;10.174;2022-07-01T06:22:49;22.60;57.60
3504;DHT22;1766;53.490;10.174;2022-07-01T06:24:50;22.70;57.70
3504;DHT22;1766;53.490;10.174;2022-07-01T06:26:52;22.60;57.40
3504;DHT22;1766;53.490;10.174;2022-07-01T06:28:54;22.60;57.50
3504;DHT22;1766;53.490;10.174;2022-07-01T06:30:57;22.70;57.50
3504;DHT22;1766;53.490;10.174;2022-07-01T06:33:00;22.60;57.60
3504;DHT22;1766;53.490;10.174;2022-07-01T06:35:02;22.60;57.40
3504;DHT22;1766;53.490;10.174;2022-07-01T06:37:04;22.50;57.60
3504;DHT22;1766;53.490;10.174;2022-07-01T06:39:06;22.60;57.80
3504;DHT22;1766;53.490;10.174;2022-07-01T06:41:08;22.60;57.70
3504;DHT22;1766;53.490;10.174;2022-07-01T06:43:23;22.60;57.80
3504;DHT22;1766;53.490;10.174;2022-07-01T06:45:25;22.70;57.70
3504;DHT22;1766;53.490;10.174;2022-07-01T06:47:28;22.80;57.80
3504;DHT22;1766;53.490;10.174;2022-07-01T06:49:31;22.80;57.90
3504;DHT22;1766;53.490;10.174;2022-07-01T06:51:33;22.90;57.90
3504;DHT22;1766;53.490;10.174;2022-07-01T06:53:35;22.90;57.70
3504;DHT22;1766;53.490;10.174;2022-07-01T06:55:36;22.90;57.80
3504;DHT22;1766;53.490;10.174;2022-07-01T06:57:38;22.80;57.60
3504;DHT22;1766;53.490;10.174;2022-07-01T06:59:40;22.70;57.60
3504;DHT22;1766;53.490;10.174;2022-07-01T07:01:42;22.70;57.70
3504;DHT22;1766;53.490;10.174;2022-07-01T07:03:44;22.70;57.90
3504;DHT22;1766;53.490;10.174;2022-07-01T07:05:47;22.80;58.10
3504;DHT22;1766;53.490;10.174;2022-07-01T07:07:49;22.70;58.20
3504;DHT22;1766;53.490;10.174;2022-07-01T07:09:51;22.80;58.30
3504;DHT22;1766;53.490;10.174;2022-07-01T07:11:53;22.90;58.40
3504;DHT22;1766;53.490;10.174;2022-07-01T07:13:55;23.00;58.60
3504;DHT22;1766;53.490;10.174;2022-07-01T07:15:59;24.00;59.20
3504;DHT22;1766;53.490;10.174;2022-07-01T07:18:01;22.90;58.40
3504;DHT22;1766;53.490;10.174;2022-07-01T07:20:05;22.90;58.40
3504;DHT22;1766;53.490;10.174;2022-07-01T07:22:08;23.00;58.60
3504;DHT22;1766;53.490;10.174;2022-07-01T07:24:10;22.90;58.20
3504;DHT22;1766;53.490;10.174;2022-07-01T07:26:12;23.00;58.20
3504;DHT22;1766;53.490;10.174;2022-07-01T07:28:14;22.90;57.90
3504;DHT22;1766;53.490;10.174;2022-07-01T07:30:16;22.90;57.60
3504;DHT22;1766;53.490;10.174;2022-07-01T07:32:18;22.80;57.60
3504;DHT22;1766;53.490;10.174;2022-07-01T07:34:20;22.80;57.60
3504;DHT22;1766;53.490;10.174;2022-07-01T07:36:21;22.70;57.40
3504;DHT22;1766;53.490;10.174;2022-07-01T07:38:25;22.60;57.40
3504;DHT22;1766;53.490;10.174;2022-07-01T07:40:27;22.60;57.60
3504;DHT22;1766;53.490;10.174;2022-07-01T07:42:28;22.80;57.70
3504;DHT22;1766;53.490;10.174;2022-07-01T07:44:31;22.60;57.40
3504;DHT22;1766;53.490;10.174;2022-07-01T07:46:33;22.60;57.20
3504;DHT22;1766;53.490;10.174;2022-07-01T07:48:34;22.60;57.20
3504;DHT22;1766;53.490;10.174;2022-07-01T07:50:37;22.60;57.20
3504;DHT22;1766;53.490;10.174;2022-07-01T07:52:39;22.60;56.90
3504;DHT22;1766;53.490;10.174;2022-07-01T07:54:42;22.60;57.00
3504;DHT22;1766;53.490;10.174;2022-07-01T07:56:44;22.60;56.90
3504;DHT22;1766;53.490;10.174;2022-07-01T07:58:46;22.70;56.90
3504;DHT22;1766;53.490;10.174;2022-07-01T08:00:48;22.80;56.80
3504;DHT22;1766;53.490;10.174;2022-07-01T08:02:49;22.70;56.70
3504;DHT22;1766;53.490;10.174;2022-07-01T08:04:51;22.80;56.60
3504;DHT22;1766;53.490;10.174;2022-07-01T08:06:53;22.80;56.60
3504;DHT22;1766;53.490;10.174;2022-07-01T08:08:55;22.90;56.70
3504;DHT22;1766;53.490;10.174;2022-07-01T08:10:59;22.90;56.80
3504;DHT22;1766;53.490;10.174;2022-07-01T08:13:01;22.90;56.70
3504;DHT22;1766;53.490;10.174;2022-07-01T08:15:05;23.00;56.70
3504;DHT22;1766;53.490;10.174;2022-07-01T08:17:08;23.00;56.80
3504;DHT22;1766;53.490;10.174;2022-07-01T08:19:09;23.00;56.40
3504;DHT22;1766;53.490;10.174;2022-07-01T08:21:11;23.00;56.50
3504;DHT22;1766;53.490;10.174;2022-07-01T08:23:13;23.00;56.50
3504;DHT22;1766;53.490;10.174;2022-07-01T08:25:15;22.90;56.90
3504;DHT22;1766;53.490;10.174;2022-07-01T08:27:18;23.00;56.50
3504;DHT22;1766;53.490;10.174;2022-07-01T08:29:20;23.00;56.30
3504;DHT22;1766;53.490;10.174;2022-07-01T08:31:22;23.10;56.30
3504;DHT22;1766;53.490;10.174;2022-07-01T08:33:24;23.10;56.40
3504;DHT22;1766;53.490;10.174;2022-07-01T08:35:26;23.10;56.20
3504;DHT22;1766;53.490;10.174;2022-07-01T08:37:27;23.10;56.20
3504;DHT22;1766;53.490;10.174;2022-07-01T08:39:29;23.10;56.20
3504;DHT22;1766;53.490;10.174;2022-07-01T08:41:31;23.20;56.20
3504;DHT22;1766;53.490;10.174;2022-07-01T08:43:35;23.20;56.30
3504;DHT22;1766;53.490;10.174;2022-07-01T08:45:38;23.20;56.20
3504;DHT22;1766;53.490;10.174;2022-07-01T08:47:56;23.30;56.10
3504;DHT22;1766;53.490;10.174;2022-07-01T08:50:01;23.30;56.40
3504;DHT22;1766;53.490;10.174;2022-07-01T08:52:03;23.40;56.20
3504;DHT22;1766;53.490;10.174;2022-07-01T08:54:05;23.60;56.30
3504;DHT22;1766;53.490;10.174;2022-07-01T08:56:07;23.70;56.20
3504;DHT22;1766;53.490;10.174;2022-07-01T08:58:24;23.70;56.30
3504;DHT22;1766;53.490;10.174;2022-07-01T09:00:31;23.90;56.10
3504;DHT22;1766;53.490;10.174;2022-07-01T09:02:50;23.80;56.00
3504;DHT22;1766;53.490;10.174;2022-07-01T09:05:04;23.90;55.90
3504;DHT22;1766;53.490;10.174;2022-07-01T09:07:08;23.90;55.70
3504;DHT22;1766;53.490;10.174;2022-07-01T09:09:12;24.00;55.70
3504;DHT22;1766;53.490;10.174;2022-07-01T09:11:16;24.10;55.60
3504;DHT22;1766;53.490;10.174;2022-07-01T09:13:19;24.00;55.10
3504;DHT22;1766;53.490;10.174;2022-07-01T09:15:24;24.00;54.70
3504;DHT22;1766;53.490;10.174;2022-07-01T09:17:29;23.80;54.60
3504;DHT22;1766;53.490;10.174;2022-07-01T09:19:34;23.80;54.70
3504;DHT22;1766;53.490;10.174;2022-07-01T09:21:37;23.70;54.60
3504;DHT22;1766;53.490;10.174;2022-07-01T09:23:39;23.70;54.40
3504;DHT22;1766;53.490;10.174;2022-07-01T09:25:42;23.50;54.20
3504;DHT22;1766;53.490;10.174;2022-07-01T09:27:45;23.40;54.10
3504;DHT22;1766;53.490;10.174;2022-07-01T09:29:50;23.40;54.20
3504;DHT22;1766;53.490;10.174;2022-07-01T09:31:51;23.30;54.60
3504;DHT22;1766;53.490;10.174;2022-07-01T09:34:04;23.20;54.20
3504;DHT22;1766;53.490;10.174;2022-07-01T09:36:14;23.10;54.40
3504;DHT22;1766;53.490;10.174;2022-07-01T09:38:18;23.10;54.30
3504;DHT22;1766;53.490;10.174;2022-07-01T09:40:20;23.20;54.40
3504;DHT22;1766;53.490;10.174;2022-07-01T09:42:23;23.10;54.10
3504;DHT22;1766;53.490;10.174;2022-07-01T09:44:26;23.20;54.40
3504;DHT22;1766;53.490;10.174;2022-07-01T09:46:29;23.10;54.20
3504;DHT22;1766;53.490;10.174;2022-07-01T09:48:46;23.20;54.30
3504;DHT22;1766;53.490;10.174;2022-07-01T09:50:50;23.30;54.20
3504;DHT22;1766;53.490;10.174;2022-07-01T09:52:52;23.20;54.40
3504;DHT22;1766;53.490;10.174;2022-07-01T09:54:54;23.30;54.30
3504;DHT22;1766;53.490;10.174;2022-07-01T09:56:56;23.20;54.30
3504;DHT22;1766;53.490;10.174;2022-07-01T09:58:58;23.20;54.30
3504;DHT22;1766;53.490;10.174;2022-07-01T10:01:00;23.20;54.30
3504;DHT22;1766;53.490;10.174;2022-07-01T10:03:04;23.30;54.40
3504;DHT22;1766;53.490;10.174;2022-07-01T10:05:10;23.30;54.30
3504;DHT22;1766;53.490;10.174;2022-07-01T10:07:26;23.30;54.10
3504;DHT22;1766;53.490;10.174;2022-07-01T10:09:47;23.10;54.00
3504;DHT22;1766;53.490;10.174;2022-07-01T10:12:07;23.20;54.00
3504;DHT22;1766;53.490;10.174;2022-07-01T10:14:21;23.00;53.70
3504;DHT22;1766;53.490;10.174;2022-07-01T10:16:23;22.90;53.70
3504;DHT22;1766;53.490;10.174;2022-07-01T10:18:26;22.80;54.00
3504;DHT22;1766;53.490;10.174;2022-07-01T10:20:30;22.70;54.20
3504;DHT22;1766;53.490;10.174;2022-07-01T10:22:35;22.60;54.20
3504;DHT22;1766;53.490;10.174;2022-07-01T10:24:38;22.50;54.70
3504;DHT22;1766;53.490;10.174;2022-07-01T10:26:40;22.50;54.70
3504;DHT22;1766;53.490;10.174;2022-07-01T10:28:43;22.50;55.10
3504;DHT22;1766;53.490;10.174;2022-07-01T10:30:51;22.50;55.10
3504;DHT22;1766;53.490;10.174;2022-07-01T10:32:59;22.30;55.30
3504;DHT22;1766;53.490;10.174;2022-07-01T10:35:06;22.40;55.50
3504;DHT22;1766;53.490;10.174;2022-07-01T10:37:10;22.40;55.80
3504;DHT22;1766;53.490;10.174;2022-07-01T10:39:16;22.50;55.80
3504;DHT22;1766;53.490;10.174;2022-07-01T10:41:24;22.40;55.70
3504;DHT22;1766;53.490;10.174;2022-07-01T10:43:32;22.50;55.50
3504;DHT22;1766;53.490;10.174;2022-07-01T10:45:41;22.40;55.50
3504;DHT22;1766;53.490;10.174;2022-07-01T10:47:44;22.50;55.60
3504;DHT22;1766;53.490;10.174;2022-07-01T10:50:04;22.60;55.40
3504;DHT22;1766;53.490;10.174;2022-07-01T10:52:09;22.50;55.60
3504;DHT22;1766;53.490;10.174;2022-07-01T10:54:12;22.50;55.30
3504;DHT22;1766;53.490;10.174;2022-07-01T10:56:17;22.60;55.30
3504;DHT22;1766;53.490;10.174;2022-07-01T10:58:35;22.60;55.30
3504;DHT22;1766;53.490;10.174;2022-07-01T11:00:41;22.50;55.40
3504;DHT22;1766;53.490;10.174;2022-07-01T11:02:43;22.60;55.40
3504;DHT22;1766;53.490;10.174;2022-07-01T11:04:46;22.60;55.50
3504;DHT22;1766;53.490;10.174;2022-07-01T11:06:50;22.50;55.50
3504;DHT22;1766;53.490;10.174;2022-07-01T11:08:54;22.70;55.80
3504;DHT22;1766;53.490;10.174;2022-07-01T11:10:58;22.60;55.50
3504;DHT22;1766;53.490;10.174;2022-07-01T11:13:03;22.60;55.80
3504;DHT22;1766;53.490;10.174;2022-07-01T11:15:06;22.60;55.70
3504;DHT22;1766;53.490;10.174;2022-07-01T11:17:11;22.60;56.00
3504;DHT22;1766;53.490;10.174;2022-07-01T11:19:13;22.70;56.10
3504;DHT22;1766;53.490;10.174;2022-07-01T11:21:18;22.60;56.10
3504;DHT22;1766;53.490;10.174;2022-07-01T11:23:21;22.70;56.00
3504;DHT22;1766;53.490;10.174;2022-07-01T11:25:23;22.70;56.30
3504;DHT22;1766;53.490;10.174;2022-07-01T11:27:26;22.70;56.20
3504;DHT22;1766;53.490;10.174;2022-07-01T11:29:30;22.90;56.40
3504;DHT22;1766;53.490;10.174;2022-07-01T11:31:33;22.90;56.10
3504;DHT22;1766;53.490;10.174;2022-07-01T11:33:35;23.00;55.90
3504;DHT22;1766;53.490;10.174;2022-07-01T11:35:43;23.00;55.60
3504;DHT22;1766;53.490;10.174;2022-07-01T11:38:08;23.10;55.50
3504;DHT22;1766;53.490;10.174;2022-07-01T11:40:24;23.10;55.40
3504;DHT22;1766;53.490;10.174;2022-07-01T11:42:26;23.20;55.20
3504;DHT22;1766;53.490;10.174;2022-07-01T11:44:32;23.20;55.20
3504;DHT22;1766;53.490;10.174;2022-07-01T11:46:35;23.20;55.30
3504;DHT22;1766;53.490;10.174;2022-07-01T11:48:39;23.30;55.40
3504;DHT22;1766;53.490;10.174;2022-07-01T11:50:41;23.30;55.20
3504;DHT22;1766;53.490;10.174;2022-07-01T11:52:43;23.20;54.80
3504;DHT22;1766;53.490;10.174;2022-07-01T11:54:55;23.20;54.90
3504;DHT22;1766;53.490;10.174;2022-07-01T11:57:08;23.20;55.20
3504;DHT22;1766;53.490;10.174;2022-07-01T11:59:10;23.30;55.10
3504;DHT22;1766;53.490;10.174;2022-07-01T12:01:22;23.40;55.10
3504;DHT22;1766;53.490;10.174;2022-07-01T12:03:32;23.40;55.00
3504;DHT22;1766;53.490;10.174;2022-07-01T12:05:35;23.40;54.50
3504;DHT22;1766;53.490;10.174;2022-07-01T12:07:37;23.40;54.60
3504;DHT22;1766;53.490;10.174;2022-07-01T12:09:41;23.40;54.70
3504;DHT22;1766;53.490;10.174;2022-07-01T12:11:44;23.50;54.80
3504;DHT22;1766;53.490;10.174;2022-07-01T12:13:48;23.60;54.70
3504;DHT22;1766;53.490;10.174;2022-07-01T12:15:50;23.60;54.50
3504;DHT22;1766;53.490;10.174;2022-07-01T12:18:05;23.70;54.40
3504;DHT22;1766;53.490;10.174;2022-07-01T12:20:08;23.70;54.60
3504;DHT22;1766;53.490;10.174;2022-07-01T12:22:12;23.80;54.10
3504;DHT22;1766;53.490;10.174;2022-07-01T12:24:17;23.90;54.30
3504;DHT22;1766;53.490;10.174;2022-07-01T12:26:22;23.90;54.00
3504;DHT22;1766;53.490;10.174;2022-07-01T12:28:30;23.90;54.00
3504;DHT22;1766;53.490;10.174;2022-07-01T12:30:32;24.00;54.20
3504;DHT22;1766;53.490;10.174;2022-07-01T12:32:36;24.10;54.00
3504;DHT22;1766;53.490;10.174;2022-07-01T12:34:42;24.10;54.10
3504;DHT22;1766;53.490;10.174;2022-07-01T12:36:47;24.20;54.00
3504;DHT22;1766;53.490;10.174;2022-07-01T12:39:01;24.20;53.90
3504;DHT22;1766;53.490;10.174;2022-07-01T12:41:27;24.30;54.00
3504;DHT22;1766;53.490;10.174;2022-07-01T12:43:30;24.40;54.20
3504;DHT22;1766;53.490;10.174;2022-07-01T12:45:39;24.50;53.80
3504;DHT22;1766;53.490;10.174;2022-07-01T12:47:43;24.70;53.60
3504;DHT22;1766;53.490;10.174;2022-07-01T12:49:47;24.70;53.60
3504;DHT22;1766;53.490;10.174;2022-07-01T12:51:50;24.80;53.30
3504;DHT22;1766;53.490;10.174;2022-07-01T12:53:53;24.90;53.40
3504;DHT22;1766;53.490;10.174;2022-07-01T12:55:56;24.90;52.90
3504;DHT22;1766;53.490;10.174;2022-07-01T12:57:58;25.00;53.00
3504;DHT22;1766;53.490;10.174;2022-07-01T13:00:01;25.10;52.80
3504;DHT22;1766;53.490;10.174;2022-07-01T13:02:03;25.20;52.40
3504;DHT22;1766;53.490;10.174;2022-07-01T13:04:05;25.30;52.00
3504;DHT22;1766;53.490;10.174;2022-07-01T13:06:08;25.50;52.10
3504;DHT22;1766;53.490;10.174;2022-07-01T13:08:11;25.80;52.40
3504;DHT22;1766;53.490;10.174;2022-07-01T13:10:14;26.20;51.70
3504;DHT22;1766;53.490;10.174;2022-07-01T13:12:17;26.60;51.60